createdAt,value
2019-05-13T00:01:14.882Z,9.43
2019-05-13T00:04:03.434Z,10.82
2019-05-13T00:06:51.315Z,10.43
2019-05-13T00:09:16.943Z,9.58
2019-05-13T00:11:59.498Z,7.15
2019-05-13T00:14:54.631Z,9.95
2019-05-13T00:17:44.827Z,8.83
2019-05-13T00:20:24.766Z,8.35
2019-05-13T00:23:00.466Z,12.60
2019-05-13T00:25:48.206Z,8.75
2019-05-13T00:28:37.457Z,6.78
2019-05-13T00:31:24.159Z,12.80
2019-05-13T00:34:03.724Z,8.75
2019-05-13T00:36:44.531Z,9.63
2019-05-13T00:39:27.011Z,7.85
2019-05-13T00:42:16.888Z,7.92
2019-05-13T00:45:05.676Z,8.38
2019-05-13T00:47:47.177Z,8.13
2019-05-13T00:50:24.156Z,9.28
2019-05-13T00:53:00.435Z,9.30
2019-05-13T00:55:53.824Z,8.85
2019-05-13T00:58:38.740Z,8.70
2019-05-13T01:01:19.378Z,10.05
2019-05-13T01:04:03.752Z,7.75
2019-05-13T01:06:35.257Z,8.93
2019-05-13T01:09:23.578Z,7.90
2019-05-13T01:12:10.748Z,10.20
2019-05-13T01:14:49.582Z,8.38
2019-05-13T01:17:33.931Z,10.08
2019-05-13T01:20:16.775Z,10.50
2019-05-13T01:23:05.133Z,7.30
2019-05-13T01:25:39.036Z,7.47
2019-05-13T01:28:21.106Z,8.20
2019-05-13T01:31:04.163Z,11.53
2019-05-13T01:36:56.535Z,6.58
2019-05-13T01:39:44.212Z,7.20
2019-05-13T01:42:25.087Z,6.22
2019-05-13T01:44:56.382Z,8.78
2019-05-13T01:47:34.412Z,7.00
2019-05-13T01:52:46.927Z,7.08
2019-05-13T01:55:37.688Z,5.67
2019-05-13T01:58:20.534Z,6.62
2019-05-13T02:01:05.111Z,5.62
2019-05-13T02:03:45.185Z,6.37
2019-05-13T02:06:33.752Z,5.50
2019-05-13T02:11:44.490Z,8.38
2019-05-13T02:14:23.817Z,6.25
2019-05-13T02:17:18.572Z,8.05
2019-05-13T02:19:56.396Z,5.78
2019-05-13T02:22:39.372Z,7.65
2019-05-13T02:25:30.680Z,4.10
2019-05-13T02:31:04.473Z,6.75
2019-05-13T02:33:42.588Z,6.10
2019-05-13T02:39:22.279Z,6.47
2019-05-13T02:42:03.597Z,6.58
2019-05-13T02:44:39.751Z,7.90
2019-05-13T02:50:05.023Z,7.87
2019-05-13T02:52:40.092Z,9.93
2019-05-13T02:55:22.285Z,8.53
2019-05-13T02:58:12.996Z,5.90
2019-05-13T03:33:27.531Z,6.15
2019-05-13T03:41:13.401Z,6.80
2019-05-13T03:44:56.757Z,7.25
2019-05-13T03:49:02.274Z,6.65
2019-05-13T03:52:07.758Z,8.60
2019-05-13T04:03:24.729Z,8.35
2019-05-13T04:06:37.230Z,8.05
2019-05-13T05:32:24.875Z,12.50
2019-05-13T05:35:32.724Z,16.45
2019-05-13T05:38:27.794Z,10.10
2019-05-13T05:41:01.554Z,11.50
2019-05-13T05:43:33.832Z,7.80
2019-05-13T05:46:04.581Z,8.78
2019-05-13T05:48:37.565Z,11.73
2019-05-13T05:51:08.352Z,9.38
2019-05-13T05:53:42.317Z,7.30
2019-05-13T05:56:16.689Z,10.63
2019-05-13T05:58:48.088Z,10.85
2019-05-13T06:01:18.859Z,11.20
2019-05-13T06:03:48.878Z,8.60
2019-05-13T06:06:22.898Z,10.20
2019-05-13T06:08:52.920Z,12.40
2019-05-13T06:11:22.604Z,13.68
2019-05-13T06:13:54.624Z,15.68
2019-05-13T06:16:23.861Z,9.48
2019-05-13T06:18:53.567Z,11.43
2019-05-13T06:21:23.412Z,15.30
2019-05-13T06:23:53.430Z,12.85
2019-05-13T06:26:23.843Z,13.98
2019-05-13T06:28:54.091Z,12.15
2019-05-13T06:31:24.174Z,12.13
2019-05-13T06:33:54.073Z,10.53
2019-05-13T06:36:23.865Z,11.93
2019-05-13T06:38:53.848Z,10.13
2019-05-13T06:41:23.587Z,10.88
2019-05-13T06:43:53.437Z,16.10
2019-05-13T06:46:23.157Z,14.68
2019-05-13T06:48:54.135Z,9.78
2019-05-13T06:51:24.157Z,9.70
2019-05-13T06:53:54.057Z,12.28
2019-05-13T06:56:24.025Z,10.98
2019-05-13T06:58:54.008Z,14.18
2019-05-13T07:01:23.894Z,12.33
2019-05-13T07:03:54.086Z,11.93
2019-05-13T07:06:27.263Z,14.28
2019-05-13T07:08:55.500Z,12.90
2019-05-13T07:11:25.309Z,12.65
2019-05-13T07:13:55.017Z,14.03
2019-05-13T07:16:24.755Z,18.85
2019-05-13T07:18:54.789Z,19.70
2019-05-13T07:21:24.772Z,18.70
2019-05-13T07:23:55.012Z,11.83
2019-05-13T07:26:25.006Z,11.25
2019-05-13T07:28:54.924Z,11.50
2019-05-13T07:31:24.750Z,13.53
2019-05-13T07:33:54.671Z,12.35
2019-05-13T07:36:24.738Z,14.33
2019-05-13T07:38:54.673Z,16.17
2019-05-13T07:41:35.305Z,19.55
2019-05-13T07:43:55.775Z,13.22
2019-05-13T07:46:25.450Z,13.25
2019-05-13T07:48:55.160Z,16.42
2019-05-13T07:51:24.914Z,11.25
2019-05-13T07:53:54.608Z,10.20
2019-05-13T07:56:25.492Z,8.90
2019-05-13T07:58:55.244Z,9.48
2019-05-13T08:01:25.245Z,9.53
2019-05-13T08:03:55.116Z,11.30
2019-05-13T08:06:25.005Z,10.20
2019-05-13T08:08:54.725Z,7.80
2019-05-13T08:11:24.813Z,10.98
2019-05-13T08:13:54.767Z,12.68
2019-05-13T08:16:24.789Z,6.00
2019-05-13T08:18:54.538Z,7.83
2019-05-13T08:21:24.250Z,9.55
2019-05-13T08:23:54.421Z,7.33
2019-05-13T08:26:24.369Z,8.55
2019-05-13T08:29:01.515Z,9.48
2019-05-13T08:31:25.857Z,5.97
2019-05-13T08:33:55.608Z,8.75
2019-05-13T08:36:25.602Z,11.20
2019-05-13T08:38:55.341Z,9.78
2019-05-13T08:41:25.051Z,7.75
2019-05-13T08:43:54.744Z,8.43
2019-05-13T08:46:24.517Z,6.28
2019-05-13T08:48:57.044Z,8.43
2019-05-13T08:51:26.902Z,9.45
2019-05-13T08:53:56.638Z,9.10
2019-05-13T08:56:26.545Z,7.45
2019-05-13T08:58:56.256Z,7.58
2019-05-13T09:01:25.961Z,8.30
2019-05-13T09:03:57.966Z,9.33
2019-05-13T09:06:27.888Z,8.20
2019-05-13T09:08:58.235Z,7.05
2019-05-13T09:11:28.046Z,8.43
2019-05-13T09:13:57.772Z,12.73
2019-05-13T09:16:31.994Z,9.35
2019-05-13T09:19:06.703Z,8.58
2019-05-13T09:21:36.827Z,7.25
2019-05-13T09:24:20.845Z,5.97
2019-05-13T09:26:38.505Z,7.50
2019-05-13T09:29:08.554Z,5.53
2019-05-13T09:31:38.491Z,10.60
2019-05-13T09:34:08.208Z,5.75
2019-05-13T09:36:37.855Z,8.78
2019-05-13T09:39:08.777Z,9.30
2019-05-13T09:41:41.083Z,8.43
2019-05-13T09:44:12.138Z,5.00
2019-05-13T09:46:42.467Z,9.40
2019-05-13T09:49:19.455Z,8.60
2019-05-13T09:51:46.791Z,4.25
2019-05-13T09:54:16.543Z,7.58
2019-05-13T09:56:46.269Z,8.70
2019-05-13T09:59:15.987Z,11.20
2019-05-13T10:01:45.752Z,7.78
2019-05-13T10:04:15.500Z,7.15
2019-05-13T10:06:45.286Z,7.83
2019-05-13T10:09:14.935Z,5.42
2019-05-13T10:11:44.631Z,7.33
2019-05-13T10:14:14.369Z,10.05
2019-05-13T10:16:44.054Z,6.85
2019-05-13T10:19:14.182Z,5.87
2019-05-13T10:21:44.148Z,5.55
2019-05-13T10:24:14.417Z,6.53
2019-05-13T10:26:44.765Z,6.20
2019-05-13T10:29:15.219Z,5.05
2019-05-13T10:31:45.362Z,6.12
2019-05-13T10:34:15.306Z,7.40
2019-05-13T10:36:45.372Z,7.95
2019-05-13T10:39:15.356Z,4.78
2019-05-13T10:41:45.424Z,6.40
2019-05-13T10:44:15.560Z,6.28
2019-05-13T10:46:45.755Z,7.47
2019-05-13T10:49:15.759Z,9.68
2019-05-13T10:51:45.752Z,4.95
2019-05-13T10:54:15.840Z,6.25
2019-05-13T10:56:45.896Z,4.78
2019-05-13T10:59:16.268Z,7.33
2019-05-13T11:01:46.044Z,5.78
2019-05-13T11:04:15.738Z,6.60
2019-05-13T11:06:45.966Z,4.05
2019-05-13T11:09:16.067Z,6.67
2019-05-13T11:11:45.803Z,5.37
2019-05-13T11:14:15.951Z,5.22
2019-05-13T11:16:51.337Z,4.97
2019-05-13T11:19:22.842Z,9.98
2019-05-13T11:21:51.932Z,6.20
2019-05-13T11:24:22.744Z,7.20
2019-05-13T11:26:53.357Z,5.45
2019-05-13T11:29:24.781Z,4.58
2019-05-13T11:31:54.539Z,6.85
2019-05-13T11:34:24.504Z,5.65
2019-05-13T11:36:54.373Z,5.62
2019-05-13T11:39:24.196Z,6.42
2019-05-13T11:41:53.919Z,5.90
2019-05-13T11:44:23.592Z,7.03
2019-05-13T11:46:53.471Z,3.92
2019-05-13T11:49:23.172Z,4.35
2019-05-13T11:51:53.656Z,4.50
2019-05-13T11:54:23.669Z,3.12
2019-05-13T11:57:01.757Z,3.15
2019-05-13T11:59:25.429Z,4.40
2019-05-13T12:01:55.204Z,7.47
2019-05-13T12:04:25.202Z,5.35
2019-05-13T12:06:55.069Z,7.22
2019-05-13T12:09:25.128Z,6.72
2019-05-13T12:11:58.177Z,7.28
2019-05-13T12:15:05.097Z,5.20
2019-05-13T12:17:02.164Z,4.37
2019-05-13T12:19:31.111Z,4.72
2019-05-13T12:22:02.670Z,4.75
2019-05-13T12:24:32.801Z,6.15
2019-05-13T12:27:03.876Z,5.55
2019-05-13T12:29:34.405Z,3.98
2019-05-13T12:32:04.470Z,5.10
2019-05-13T12:34:40.465Z,5.97
2019-05-13T12:37:06.335Z,3.72
2019-05-13T12:39:38.237Z,2.95
2019-05-13T12:42:08.728Z,4.25
2019-05-13T12:45:00.551Z,4.28
2019-05-13T12:47:22.149Z,3.72
2019-05-13T12:49:53.811Z,10.38
2019-05-13T12:52:38.310Z,5.83
2019-05-13T12:55:14.185Z,13.22
2019-05-13T12:57:44.280Z,5.47
2019-05-13T13:00:23.342Z,6.72
2019-05-13T13:03:27.522Z,10.38
2019-05-13T13:06:22.427Z,6.58
2019-05-13T13:08:40.040Z,7.37
2019-05-13T13:11:32.302Z,5.40
2019-05-13T13:14:10.213Z,3.02
2019-05-13T13:16:43.564Z,3.40
2019-05-13T13:19:22.683Z,2.70
2019-05-13T13:21:53.727Z,3.33
2019-05-13T13:24:25.998Z,4.15
2019-05-13T13:26:56.400Z,5.55
2019-05-13T13:29:33.675Z,4.67
2019-05-13T13:32:03.108Z,3.72
2019-05-13T13:34:33.842Z,4.42
2019-05-13T13:37:05.202Z,4.80
2019-05-13T13:39:35.789Z,1.67
2019-05-13T13:42:06.347Z,4.25
2019-05-13T13:44:36.879Z,4.67
2019-05-13T13:47:15.178Z,3.95
2019-05-13T13:49:45.230Z,8.50
2019-05-13T13:52:16.402Z,4.03
2019-05-13T13:54:46.830Z,5.87
2019-05-13T13:57:17.054Z,4.47
2019-05-13T14:00:16.137Z,4.90
2019-05-13T14:02:18.823Z,4.20
2019-05-13T14:04:53.630Z,5.30
2019-05-13T14:07:31.322Z,5.03
2019-05-13T14:09:52.970Z,4.75
2019-05-13T14:12:32.587Z,5.35
2019-05-13T14:15:01.964Z,5.75
2019-05-13T14:17:31.443Z,6.72
2019-05-13T14:20:01.298Z,6.53
2019-05-13T14:22:32.287Z,6.05
2019-05-13T14:25:02.157Z,3.67
2019-05-13T14:27:32.232Z,3.37
2019-05-13T14:30:02.048Z,4.97
2019-05-13T14:32:32.156Z,4.05
2019-05-13T14:35:02.636Z,6.12
2019-05-13T14:37:32.419Z,4.67
2019-05-13T14:40:02.616Z,3.77
2019-05-13T14:42:32.904Z,3.15
2019-05-13T14:45:02.663Z,5.72
2019-05-13T14:47:32.542Z,6.12
2019-05-13T14:50:02.598Z,6.20
2019-05-13T14:52:32.427Z,4.78
2019-05-13T14:55:04.921Z,7.20
2019-05-13T14:57:34.801Z,8.03
2019-05-13T15:00:05.079Z,7.85
2019-05-13T15:02:35.925Z,8.50
2019-05-13T15:05:11.988Z,9.30
2019-05-13T15:07:44.218Z,7.62
2019-05-13T15:10:14.226Z,9.58
2019-05-13T15:12:45.411Z,7.35
2019-05-13T15:15:15.875Z,4.85
2019-05-13T15:17:45.509Z,9.80
2019-05-13T15:20:15.540Z,5.70
2019-05-13T15:22:45.212Z,7.58
2019-05-13T15:25:14.998Z,4.72
2019-05-13T15:27:44.680Z,6.33
2019-05-13T15:30:17.973Z,8.38
2019-05-13T15:32:45.906Z,10.30
2019-05-13T15:35:15.574Z,5.53
2019-05-13T15:37:45.223Z,6.17
2019-05-13T15:40:14.884Z,4.15
2019-05-13T15:42:44.778Z,13.05
2019-05-13T15:45:14.557Z,4.83
2019-05-13T15:47:44.208Z,5.55
2019-05-13T15:50:14.048Z,4.53
2019-05-13T15:52:44.041Z,7.45
2019-05-13T15:55:13.952Z,5.05
2019-05-13T15:57:43.880Z,2.85
2019-05-13T16:00:13.541Z,4.75
2019-05-13T16:02:43.262Z,5.80
2019-05-13T16:05:13.143Z,6.87
2019-05-13T16:07:42.794Z,4.58
2019-05-13T16:10:13.267Z,10.32
2019-05-13T16:12:42.888Z,7.97
2019-05-13T16:15:15.692Z,5.92
2019-05-13T16:17:45.065Z,4.35
2019-05-13T16:20:15.155Z,4.40
2019-05-13T16:22:44.837Z,3.87
2019-05-13T16:25:15.194Z,5.00
2019-05-13T16:27:44.925Z,4.15
2019-05-13T16:30:14.790Z,6.65
2019-05-13T16:32:48.017Z,5.97
2019-05-13T16:35:16.094Z,3.65
2019-05-13T16:37:45.793Z,7.55
2019-05-13T16:40:16.532Z,6.58
2019-05-13T16:42:46.222Z,5.72
2019-05-13T16:45:16.939Z,6.12
2019-05-13T16:47:56.907Z,4.80
2019-05-13T16:50:18.220Z,5.08
2019-05-13T16:52:47.868Z,5.40
2019-05-13T16:55:17.781Z,10.55
2019-05-13T16:57:47.422Z,5.05
2019-05-13T17:00:17.290Z,4.12
2019-05-13T17:02:46.977Z,5.33
2019-05-13T17:05:22.845Z,3.20
2019-05-13T17:07:58.383Z,5.22
2019-05-13T17:10:28.412Z,3.85
2019-05-13T17:12:58.712Z,5.60
2019-05-13T17:15:31.049Z,5.20
2019-05-13T17:18:11.085Z,5.95
2019-05-13T17:20:32.280Z,5.92
2019-05-13T17:23:02.225Z,5.58
2019-05-13T17:25:32.346Z,4.85
2019-05-13T17:28:03.245Z,4.92
2019-05-13T17:30:33.370Z,4.80
2019-05-13T17:33:03.195Z,3.15
2019-05-13T17:35:33.212Z,4.45
2019-05-13T17:38:03.147Z,6.33
2019-05-13T17:40:32.961Z,3.50
2019-05-13T17:43:02.999Z,5.67
2019-05-13T17:45:33.098Z,4.17
2019-05-13T17:48:03.760Z,6.40
2019-05-13T17:50:36.415Z,4.30
2019-05-13T17:53:08.534Z,5.50
2019-05-13T17:55:38.548Z,4.70
2019-05-13T17:58:11.636Z,5.25
2019-05-13T18:00:41.838Z,7.87
2019-05-13T18:03:11.786Z,7.10
2019-05-13T18:05:42.176Z,7.15
2019-05-13T18:08:14.160Z,4.97
2019-05-13T18:10:44.271Z,4.33
2019-05-13T18:13:21.342Z,4.65
2019-05-13T18:15:51.889Z,3.98
2019-05-13T18:18:38.948Z,4.80
2019-05-13T18:20:58.091Z,5.95
2019-05-13T18:23:28.147Z,6.03
2019-05-13T18:25:58.471Z,5.72
2019-05-13T18:28:31.500Z,3.95
2019-05-13T18:31:04.060Z,5.12
2019-05-13T18:33:34.057Z,4.58
2019-05-13T18:54:23.226Z,3.12
2019-05-13T18:57:01.589Z,5.55
2019-05-13T19:21:27.780Z,6.55
2019-05-13T19:28:06.436Z,6.78
2019-05-13T19:30:48.762Z,3.85
2019-05-13T19:33:25.514Z,4.22
2019-05-13T19:36:11.891Z,6.40
2019-05-13T19:38:47.545Z,9.70
2019-05-13T19:41:38.968Z,7.60
2019-05-13T19:44:32.605Z,6.55
2019-05-13T19:47:06.730Z,5.90
2019-05-13T19:49:46.658Z,7.87
2019-05-13T19:52:21.379Z,4.42
2019-05-13T19:54:51.511Z,3.95
2019-05-13T20:01:42.306Z,4.47
2019-05-13T20:04:13.028Z,3.95
2019-05-13T20:17:34.205Z,6.53
2019-05-13T20:20:07.108Z,7.72
2019-05-13T20:22:47.356Z,8.05
2019-05-13T20:25:27.846Z,6.83
2019-05-13T20:27:54.432Z,6.47
2019-05-13T20:30:35.606Z,5.78
2019-05-13T20:34:48.491Z,5.08
2019-05-13T20:36:23.086Z,8.40
2019-05-13T20:43:12.537Z,4.45
2019-05-13T20:45:51.764Z,4.75
2019-05-13T20:48:26.488Z,4.22
2019-05-13T20:51:02.274Z,4.17
2019-05-13T20:53:34.279Z,6.08
2019-05-13T20:56:07.466Z,6.45
2019-05-13T20:58:42.183Z,6.22
2019-05-13T21:01:13.062Z,6.40
2019-05-13T21:03:43.638Z,4.37
2019-05-13T21:06:14.391Z,6.72
2019-05-13T21:08:45.222Z,4.50
2019-05-13T21:11:15.900Z,5.00
2019-05-13T21:13:46.559Z,6.10
2019-05-13T21:16:21.765Z,6.10
2019-05-13T21:18:52.063Z,6.20
2019-05-13T21:21:22.502Z,3.80
2019-05-13T21:23:53.045Z,7.50
2019-05-13T21:26:23.404Z,7.20
2019-05-13T21:28:53.539Z,5.58
2019-05-13T21:31:24.103Z,6.08
2019-05-13T21:33:54.631Z,4.03
2019-05-13T21:36:25.274Z,7.65
2019-05-13T21:38:55.827Z,4.08
2019-05-13T21:41:26.137Z,6.28
2019-05-13T21:43:56.923Z,9.03
2019-05-13T21:46:30.633Z,6.45
2019-05-13T21:49:01.578Z,5.40
2019-05-13T21:51:32.205Z,6.50
2019-05-13T21:54:02.860Z,7.65
2019-05-13T21:56:33.420Z,5.17
2019-05-13T21:59:03.708Z,6.20
2019-05-13T22:01:36.448Z,7.10
2019-05-13T22:04:09.602Z,7.42
2019-05-13T22:06:40.363Z,10.23
2019-05-13T22:09:12.812Z,5.70
2019-05-13T22:11:43.633Z,3.90
2019-05-13T22:14:14.310Z,6.62
2019-05-13T22:16:46.659Z,8.60
2019-05-13T22:19:17.053Z,6.30
2019-05-13T22:21:48.984Z,7.08
2019-05-13T22:24:19.462Z,5.87
2019-05-13T22:26:59.128Z,7.67
2019-05-13T22:29:32.174Z,8.53
2019-05-13T22:32:07.339Z,7.12
2019-05-13T22:34:38.035Z,4.42
2019-05-13T22:37:08.701Z,4.55
2019-05-13T22:39:41.900Z,5.80
2019-05-13T22:42:12.417Z,6.92
2019-05-13T22:44:46.082Z,5.42
2019-05-13T22:47:21.808Z,3.72
2019-05-13T22:49:53.150Z,6.12
2019-05-13T22:52:24.178Z,5.47
2019-05-13T22:54:54.769Z,5.53
2019-05-13T22:57:31.348Z,4.33
2019-05-13T23:00:02.525Z,7.60
2019-05-13T23:02:34.551Z,4.42
2019-05-13T23:05:07.030Z,5.37
2019-05-13T23:07:37.915Z,5.87
2019-05-13T23:10:08.948Z,7.45
2019-05-13T23:12:42.572Z,8.50
2019-05-13T23:15:21.297Z,7.25
2019-05-13T23:17:52.482Z,3.75
2019-05-13T23:20:25.958Z,5.55
2019-05-13T23:23:01.256Z,3.70
2019-05-13T23:25:32.166Z,7.33
2019-05-13T23:28:11.208Z,8.75
2019-05-13T23:30:51.112Z,4.58
2019-05-13T23:33:27.412Z,5.97
2019-05-13T23:36:17.567Z,7.25
2019-05-13T23:38:53.164Z,5.70
2019-05-13T23:41:41.507Z,5.45
2019-05-13T23:44:27.851Z,4.55
2019-05-13T23:46:59.648Z,4.33
2019-05-13T23:49:38.501Z,6.95
2019-05-13T23:52:16.451Z,5.28
2019-05-13T23:54:51.672Z,4.83
2019-05-13T23:57:32.619Z,6.53
